Time;durP1;ratioP1;P1;durP2;ratioP2;P2;SDS_P1;SDS_P2;PMS_P1;PMS_P2;Temp;Humidity;BMP_temperature;BMP_pressure;BME280_temperature;BME280_humidity;BME280_pressure;Samples;Min_cycle;Max_cycle;Signal;HPM_P1;HPM_P2
2022/03/22 00:00:36;;;;;;;15.43;14.10;;;;;;;6.45;56.99;102075.69;5015035;28;20261;-73
2022/03/22 00:03:04;;;;;;;14.40;13.23;;;;;;;6.47;56.39;102069.69;5014793;28;20213;-73
2022/03/22 00:05:31;;;;;;;15.70;14.40;;;;;;;6.47;56.15;102076.59;5012284;28;20214;-73
2022/03/22 00:07:59;;;;;;;15.77;14.37;;;;;;;6.40;56.61;102091.13;5014726;28;20806;-74
2022/03/22 00:10:26;;;;;;;14.57;13.20;;;;;;;6.36;56.51;102072.03;5014632;28;20727;-73
2022/03/22 00:12:52;;;;;;;16.00;14.70;;;;;;;6.32;56.74;102079.69;5015113;28;20213;-74
2022/03/22 00:15:19;;;;;;;14.40;13.00;;;;;;;6.33;55.18;102105.66;5014904;28;20259;-75
2022/03/22 00:17:47;;;;;;;15.67;13.53;;;;;;;6.30;55.76;102107.28;5014612;28;20259;-74
2022/03/22 00:20:15;;;;;;;15.37;14.07;;;;;;;6.29;56.02;102103.84;5014892;28;20280;-74
2022/03/22 00:22:42;;;;;;;15.37;13.83;;;;;;;6.39;55.03;102110.13;5014663;28;20221;-73
2022/03/22 00:25:09;;;;;;;15.63;14.10;;;;;;;6.30;55.81;102097.81;5014715;28;20207;-74
2022/03/22 00:30:32;;;;;;;14.70;13.50;;;;;;;6.27;57.24;102076.13;5130078;27;20818;-73
2022/03/22 00:33:02;;;;;;;15.07;13.83;;;;;;;6.27;56.45;102076.97;5129920;27;20210;-73
2022/03/22 00:35:30;;;;;;;15.37;14.07;;;;;;;6.29;55.48;102092.59;5130230;27;20205;-73
2022/03/22 00:37:59;;;;;;;15.13;13.83;;;;;;;6.22;56.01;102096.72;5121554;27;20202;-73
2022/03/22 00:40:27;;;;;;;14.67;13.47;;;;;;;6.26;56.50;102083.00;5130050;27;20222;-73
2022/03/22 00:42:54;;;;;;;14.30;13.00;;;;;;;6.29;56.40;102080.50;5130224;28;20201;-73
2022/03/22 00:45:23;;;;;;;14.97;13.57;;;;;;;6.24;56.40;102078.63;5129806;28;20232;-73
2022/03/22 00:47:52;;;;;;;14.90;13.60;;;;;;;6.19;57.05;102070.72;5130097;27;20210;-73
2022/03/22 00:50:21;;;;;;;14.60;13.40;;;;;;;6.20;57.50;102056.91;5130522;28;20234;-73
2022/03/22 00:52:48;;;;;;;15.10;13.80;;;;;;;6.17;57.41;102064.63;5130082;28;20205;-73
2022/03/22 00:55:15;;;;;;;14.20;13.00;;;;;;;6.16;57.01;102055.09;5129747;27;20262;-73
2022/03/22 00:57:43;;;;;;;14.43;13.10;;;;;;;6.18;57.41;102056.00;5130114;28;20232;-73
2022/03/22 01:00:13;;;;;;;14.63;13.30;;;;;;;6.19;56.65;102075.91;5129698;28;20710;-73
2022/03/22 01:02:41;;;;;;;13.57;12.43;;;;;;;6.16;57.40;102068.03;5129930;28;20203;-73
2022/03/22 01:05:13;;;;;;;14.33;13.13;;;;;;;6.12;57.30;102059.31;5129541;28;20214;-73
2022/03/22 01:07:40;;;;;;;13.87;12.77;;;;;;;6.07;57.56;102049.69;5121115;27;20201;-73
2022/03/22 01:10:09;;;;;;;14.30;13.00;;;;;;;6.03;57.59;102046.13;5129467;28;20294;-73
2022/03/22 01:12:38;;;;;;;14.20;12.97;;;;;;;5.99;57.69;102049.50;5129804;28;20210;-73
2022/03/22 01:15:08;;;;;;;13.27;12.17;;;;;;;6.00;57.66;102043.44;5129644;28;20210;-73
2022/03/22 01:17:35;;;;;;;13.77;12.50;;;;;;;6.01;57.54;102046.94;5129546;28;20663;-73
2022/03/22 01:20:01;;;;;;;14.67;13.37;;;;;;;6.04;57.66;102042.69;5129434;28;20221;-73
2022/03/22 01:22:29;;;;;;;13.93;12.73;;;;;;;5.99;57.49;102044.31;5129497;28;20206;-73
2022/03/22 01:24:55;;;;;;;14.20;12.73;;;;;;;5.92;57.84;102037.16;5128550;27;20613;-72
2022/03/22 01:27:22;;;;;;;14.07;12.87;;;;;;;5.91;57.84;102031.09;5129485;27;20263;-73
2022/03/22 01:29:49;;;;;;;13.63;12.43;;;;;;;5.93;57.17;102032.03;5128999;28;20247;-73
2022/03/22 01:32:16;;;;;;;14.13;12.93;;;;;;;5.96;56.68;102050.25;5129276;27;20571;-73
2022/03/22 01:34:43;;;;;;;13.00;11.83;;;;;;;6.00;56.07;102064.19;5128805;28;20202;-73
2022/03/22 01:37:09;;;;;;;12.63;11.53;;;;;;;6.02;54.73;102097.94;5121666;28;20202;-73
2022/03/22 01:39:37;;;;;;;12.17;11.07;;;;;;;6.05;54.29;102127.41;5128106;28;20215;-73
2022/03/22 01:42:04;;;;;;;13.03;11.67;;;;;;;6.05;54.54;102142.97;5115076;28;20228;-73
2022/03/22 01:44:32;;;;;;;13.07;11.87;;;;;;;6.02;54.37;102147.19;5115080;28;20260;-73
2022/03/22 01:47:00;;;;;;;12.60;11.40;;;;;;;6.03;54.74;102143.78;5115216;28;20260;-73
2022/03/22 01:49:27;;;;;;;11.73;10.73;;;;;;;6.07;54.20;102151.66;5114924;28;20231;-74
2022/03/22 01:51:55;;;;;;;13.13;12.03;;;;;;;6.02;55.34;102127.31;5115383;28;20207;-73
2022/03/22 01:54:21;;;;;;;12.70;11.70;;;;;;;6.03;55.08;102110.06;5114869;28;20210;-73
2022/03/22 01:56:50;;;;;;;14.67;10.77;;;;;;;5.80;49.53;102181.94;5114923;28;20207;-73
2022/03/22 01:59:16;;;;;;;11.83;10.83;;;;;;;5.77;50.35;102240.63;5114969;28;20229;-73
2022/03/22 02:07:14;;;;;;;10.67;9.77;;;;;;;5.94;52.42;102253.19;5106727;28;20210;-73
2022/03/22 02:09:40;;;;;;;11.83;10.67;;;;;;;5.88;50.86;102238.34;5094361;28;20241;-72
2022/03/22 02:12:10;;;;;;;12.17;10.43;;;;;;;5.82;51.18;102251.13;5094272;28;20264;-72
2022/03/22 02:14:36;;;;;;;13.17;12.07;;;;;;;5.78;50.66;102260.50;5093893;28;20207;-73
2022/03/22 02:17:07;;;;;;;13.30;12.20;;;;;;;5.78;52.50;102244.09;5094446;28;20213;-73
2022/03/22 02:19:34;;;;;;;14.10;12.53;;;;;;;5.78;51.80;102208.69;5094296;28;20297;-73
2022/03/22 02:22:02;;;;;;;13.33;12.00;;;;;;;5.68;51.17;102234.28;5094318;28;20260;-73
2022/03/22 02:24:30;;;;;;;12.93;11.77;;;;;;;5.62;50.73;102229.78;5093532;28;20206;-73
2022/03/22 02:26:57;;;;;;;11.83;10.73;;;;;;;5.56;50.79;102250.34;5093927;28;20737;-73
2022/03/22 02:29:23;;;;;;;12.97;11.83;;;;;;;5.65;51.95;102231.59;5093858;28;20277;-73
2022/03/22 02:31:49;;;;;;;11.93;10.83;;;;;;;5.70;50.81;102228.31;5094042;28;20207;-73
2022/03/22 02:34:17;;;;;;;10.57;9.67;;;;;;;5.74;49.54;102250.88;5093747;28;20208;-72
2022/03/22 02:36:44;;;;;;;10.37;9.50;;;;;;;5.70;49.71;102269.75;5106006;28;20541;-72
2022/03/22 02:39:11;;;;;;;11.27;9.97;;;;;;;5.66;48.58;102301.59;5097758;28;20224;-72
2022/03/22 02:41:39;;;;;;;12.10;11.00;;;;;;;5.74;49.15;102299.25;5094005;28;20206;-72
2022/03/22 02:44:05;;;;;;;12.20;11.10;;;;;;;5.82;51.49;102276.16;5093527;28;20211;-73
2022/03/22 02:46:32;;;;;;;12.13;11.13;;;;;;;5.85;51.10;102240.84;5093692;28;20218;-73
2022/03/22 02:48:58;;;;;;;12.63;11.47;;;;;;;5.90;51.38;102221.13;5093444;28;20235;-73
2022/03/22 02:51:25;;;;;;;11.90;10.80;;;;;;;5.92;49.84;102239.31;5093142;28;20203;-73
2022/03/22 02:53:51;;;;;;;12.70;10.97;;;;;;;5.89;50.47;102250.47;5092818;28;20253;-73
2022/03/22 02:56:19;;;;;;;11.90;10.70;;;;;;;5.85;51.70;102217.53;5093624;28;20245;-72
2022/03/22 02:58:47;;;;;;;12.27;11.17;;;;;;;5.88;52.62;102191.69;5093554;28;20270;-72
2022/03/22 03:01:14;;;;;;;11.63;10.63;;;;;;;5.83;52.71;102182.03;5093515;28;20245;-72
2022/03/22 03:03:40;;;;;;;11.37;10.37;;;;;;;5.78;53.39;102166.34;5093103;28;20209;-72
2022/03/22 03:06:07;;;;;;;11.83;10.73;;;;;;;5.76;52.95;102149.88;5100169;28;20207;-73
2022/03/22 03:08:33;;;;;;;11.10;10.20;;;;;;;5.68;53.21;102141.91;5102696;28;20223;-73
2022/03/22 03:11:00;;;;;;;11.47;10.47;;;;;;;5.62;53.20;102143.44;5093021;28;20226;-73
2022/03/22 03:14:38;;;;;;;10.60;9.70;;;;;;;5.55;53.52;102151.03;5093028;28;20676;-73
2022/03/22 03:16:14;;;;;;;11.93;10.83;;;;;;;5.48;54.64;102119.72;5092980;28;20213;-73
2022/03/22 03:18:40;;;;;;;12.97;10.73;;;;;;;5.43;52.14;102176.56;5093052;28;20273;-73
2022/03/22 03:21:07;;;;;;;12.80;10.73;;;;;;;5.44;53.21;102175.72;5093197;28;20271;-73
2022/03/22 03:23:33;;;;;;;14.43;13.07;;;;;;;5.30;51.07;102215.88;5092992;28;20212;-73
2022/03/22 03:25:59;;;;;;;13.63;12.10;;;;;;;5.12;51.07;102235.16;5092837;28;20630;-73
2022/03/22 03:28:26;;;;;;;14.83;13.53;;;;;;;5.05;52.17;102229.72;5093232;28;20240;-71
2022/03/22 03:30:52;;;;;;;15.57;13.77;;;;;;;5.02;54.29;102191.69;5093292;28;20266;-73
2022/03/22 03:33:20;;;;;;;14.63;13.27;;;;;;;5.08;54.93;102134.06;5093440;28;20201;-73
2022/03/22 03:35:46;;;;;;;14.30;13.10;;;;;;;5.15;55.48;102108.44;5097274;28;20205;-73
2022/03/22 03:38:13;;;;;;;15.67;14.23;;;;;;;5.17;55.61;102101.59;5105238;28;20594;-73
2022/03/22 03:43:24;;;;;;;14.93;13.53;;;;;;;5.29;55.70;102103.66;5092690;28;20269;-72
2022/03/22 03:48:36;;;;;;;15.23;13.87;;;;;;;5.32;55.99;102090.78;5092679;28;20715;-72
2022/03/22 03:51:02;;;;;;;14.13;12.83;;;;;;;5.35;55.59;102095.16;5092332;28;20771;-72
2022/03/22 03:53:29;;;;;;;14.03;12.83;;;;;;;5.35;54.27;102116.78;5092356;28;20210;-71
2022/03/22 03:55:55;;;;;;;14.23;12.97;;;;;;;5.33;53.30;102146.94;5092302;28;20205;-71
2022/03/22 03:58:21;;;;;;;12.07;11.07;;;;;;;5.40;53.46;102165.25;5092538;28;20205;-72
2022/03/22 04:00:48;;;;;;;12.27;11.07;;;;;;;5.40;52.45;102181.66;5092388;28;20197;-72
2022/03/22 04:03:14;;;;;;;13.53;11.00;;;;;;;5.40;52.84;102204.94;5092129;28;20736;-71
2022/03/22 04:05:42;;;;;;;12.40;11.30;;;;;;;5.38;53.55;102197.13;5095458;28;20652;-71
2022/03/22 04:08:08;;;;;;;12.33;11.23;;;;;;;5.38;54.59;102178.13;5104886;28;20536;-71
2022/03/22 04:10:35;;;;;;;12.47;11.37;;;;;;;5.29;55.36;102150.25;5092285;28;20230;-71
2022/03/22 04:13:01;;;;;;;12.67;11.57;;;;;;;5.14;56.07;102124.78;5092339;28;20269;-71
2022/03/22 04:15:29;;;;;;;12.63;11.53;;;;;;;5.06;55.92;102108.13;5092148;28;20209;-72
2022/03/22 04:17:56;;;;;;;11.53;10.53;;;;;;;4.90;56.01;102106.78;5092226;28;20296;-72
2022/03/22 04:20:23;;;;;;;12.23;11.07;;;;;;;4.82;56.74;102097.91;5091941;28;20221;-72
2022/03/22 04:22:51;;;;;;;13.60;12.30;;;;;;;4.85;56.59;102094.53;5092058;28;20258;-72
2022/03/22 04:25:17;;;;;;;12.67;11.50;;;;;;;4.83;57.49;102072.91;5091418;28;20575;-72
2022/03/22 04:33:11;;;;;;;12.50;11.30;;;;;;;4.74;57.77;102058.00;5092164;28;20230;-72
2022/03/22 04:35:39;;;;;;;12.27;11.27;;;;;;;4.67;57.68;102051.72;5094830;28;20201;-71
2022/03/22 04:38:07;;;;;;;12.73;11.63;;;;;;;4.67;58.06;102048.28;5105278;28;20190;-71
2022/03/22 04:40:35;;;;;;;12.90;11.80;;;;;;;4.51;58.86;102023.63;5092024;28;20677;-72
2022/03/22 04:43:01;;;;;;;12.53;11.53;;;;;;;4.47;59.54;102014.03;5091892;28;20262;-71
2022/03/22 04:45:28;;;;;;;12.90;11.77;;;;;;;4.50;58.54;102015.00;5091765;28;20198;-72
2022/03/22 04:47:54;;;;;;;13.17;11.97;;;;;;;4.58;58.08;102033.34;5092193;28;20261;-72
2022/03/22 04:50:21;;;;;;;12.43;11.23;;;;;;;4.55;56.79;102064.28;5091830;28;20278;-72
2022/03/22 04:58:33;;;;;;;15.67;14.17;;;;;;;4.09;55.86;102171.31;5029182;28;20298;-72
2022/03/22 05:00:59;;;;;;;15.77;14.37;;;;;;;3.95;56.76;102138.09;5029251;28;20206;-71
2022/03/22 05:03:26;;;;;;;16.67;14.80;;;;;;;3.87;57.34;102113.69;5056548;28;20207;-72
2022/03/22 05:08:36;;;;;;;15.23;13.80;;;;;;;3.98;57.44;102091.72;5100508;28;20240;-71
2022/03/22 05:11:04;;;;;;;15.53;14.03;;;;;;;4.12;57.33;102099.03;5091652;28;20256;-71
2022/03/22 05:13:34;;;;;;;15.73;14.23;;;;;;;4.27;57.20;102096.13;5091604;28;20205;-72
2022/03/22 05:16:00;;;;;;;15.73;14.27;;;;;;;4.41;56.97;102106.91;5093218;28;20205;-72
2022/03/22 05:18:27;;;;;;;16.13;14.53;;;;;;;4.47;56.73;102107.97;5095242;28;20774;-72
2022/03/22 05:20:53;;;;;;;15.10;13.90;;;;;;;4.55;56.60;102116.00;5095480;28;20638;-72
2022/03/22 05:23:20;;;;;;;15.47;13.97;;;;;;;4.60;57.86;102100.63;5095373;28;20212;-72
2022/03/22 05:25:46;;;;;;;15.43;14.07;;;;;;;4.52;59.19;102071.91;5094824;28;20246;-72
2022/03/22 05:28:14;;;;;;;14.77;13.50;;;;;;;4.50;59.55;102050.31;5094886;28;20796;-72
2022/03/22 05:30:40;;;;;;;16.50;14.87;;;;;;;4.45;58.82;102055.34;5095055;28;20225;-72
2022/03/22 05:33:07;;;;;;;16.00;14.50;;;;;;;4.44;59.07;102056.19;5095381;28;20205;-72
2022/03/22 05:35:33;;;;;;;13.97;12.67;;;;;;;4.37;56.98;102064.56;5097338;28;20272;-72
2022/03/22 05:38:00;;;;;;;17.13;15.40;;;;;;;4.22;55.72;102115.75;5109195;28;20283;-72
2022/03/22 05:40:26;;;;;;;15.03;13.33;;;;;;;4.07;55.88;102136.78;5095007;28;20217;-72
2022/03/22 05:42:53;;;;;;;14.67;13.27;;;;;;;4.18;56.25;102132.84;5094955;28;20270;-72
2022/03/22 05:45:21;;;;;;;14.93;13.47;;;;;;;4.31;55.54;102135.03;5094697;28;20736;-72
2022/03/22 05:47:48;;;;;;;14.83;12.97;;;;;;;4.37;54.67;102160.22;5095023;28;20205;-72
2022/03/22 05:50:14;;;;;;;13.57;12.27;;;;;;;4.45;54.76;102176.88;5094816;28;20245;-72
2022/03/22 05:52:45;;;;;;;13.47;12.30;;;;;;;4.55;55.58;102173.75;5094931;28;20205;-72
2022/03/22 05:55:12;;;;;;;12.97;11.87;;;;;;;4.63;55.81;102162.81;5094722;28;20246;-72
2022/03/22 05:57:39;;;;;;;13.03;11.97;;;;;;;4.68;55.72;102163.84;5094562;28;20293;-72
2022/03/22 06:00:07;;;;;;;15.83;14.30;;;;;;;4.42;54.80;102187.13;5094765;28;20223;-72
2022/03/22 06:02:37;;;;;;;14.90;13.50;;;;;;;4.10;55.84;102176.53;5094762;28;20278;-72
2022/03/22 06:05:04;;;;;;;15.53;14.13;;;;;;;4.00;56.81;102153.75;5094637;28;20205;-72
2022/03/22 06:07:30;;;;;;;16.00;14.33;;;;;;;3.98;57.50;102121.81;5111203;28;20212;-71
2022/03/22 06:09:57;;;;;;;16.03;14.53;;;;;;;4.00;58.02;102115.00;5094463;28;20295;-72
2022/03/22 06:12:23;;;;;;;15.20;13.63;;;;;;;4.11;57.47;102105.06;5094256;28;20262;-71
2022/03/22 06:15:14;;;;;;;14.90;13.60;;;;;;;4.10;57.87;102106.75;5094405;28;20313;-71
2022/03/22 06:17:38;;;;;;;15.20;13.63;;;;;;;4.21;57.90;102103.66;5094187;28;20574;-71
2022/03/22 06:20:06;;;;;;;15.23;13.93;;;;;;;4.16;57.48;102113.81;5094253;28;20229;-71
2022/03/22 06:22:32;;;;;;;15.30;13.83;;;;;;;4.16;57.53;102116.41;5093851;28;20254;-71
2022/03/22 06:24:59;;;;;;;15.33;13.83;;;;;;;4.20;57.40;102109.63;5103967;28;20198;-72
2022/03/22 06:27:25;;;;;;;14.97;13.47;;;;;;;4.09;56.60;102117.91;5102793;28;20209;-71
2022/03/22 06:29:52;;;;;;;16.90;13.70;;;;;;;4.11;57.32;102136.06;5103869;28;20237;-71
2022/03/22 06:32:18;;;;;;;14.93;13.53;;;;;;;4.03;57.08;102128.03;5104194;28;20206;-72
2022/03/22 06:34:47;;;;;;;14.53;13.33;;;;;;;3.94;58.12;102114.78;5102353;27;20957;-71
2022/03/22 06:37:13;;;;;;;15.07;13.80;;;;;;;3.92;57.91;102111.25;5105732;28;20237;-71
2022/03/22 06:39:40;;;;;;;16.20;14.70;;;;;;;3.89;58.00;102109.47;5104141;28;20229;-71
2022/03/22 06:42:06;;;;;;;16.70;14.90;;;;;;;3.86;59.32;102099.00;5102232;28;20197;-71
2022/03/22 06:44:37;;;;;;;16.10;14.23;;;;;;;3.91;59.15;102084.56;5101663;28;20617;-71
2022/03/22 06:47:04;;;;;;;16.23;14.53;;;;;;;4.04;58.97;102080.69;5103115;28;20286;-71
2022/03/22 06:49:31;;;;;;;15.90;14.40;;;;;;;4.18;59.05;102075.97;5104544;28;20225;-71
2022/03/22 06:51:58;;;;;;;16.63;14.80;;;;;;;4.21;58.45;102086.44;5102760;28;20267;-71
2022/03/22 06:54:26;;;;;;;16.87;14.93;;;;;;;4.01;59.11;102095.22;5102275;28;20202;-71
2022/03/22 06:56:53;;;;;;;15.73;14.10;;;;;;;3.93;59.84;102076.88;5104253;28;20305;-71
2022/03/22 06:59:19;;;;;;;16.33;14.83;;;;;;;3.88;60.54;102055.16;5102703;28;20266;-72
2022/03/22 07:01:45;;;;;;;18.20;14.57;;;;;;;3.94;60.26;102056.25;5102551;28;20249;-71
2022/03/22 07:04:12;;;;;;;18.90;15.37;;;;;;;4.06;61.26;102029.06;5103923;28;20604;-71
2022/03/22 07:06:38;;;;;;;18.07;16.23;;;;;;;4.17;62.01;101992.41;5103215;28;20621;-71
2022/03/22 07:09:06;;;;;;;17.43;15.83;;;;;;;4.32;62.46;101979.13;5102755;28;20246;-71
2022/03/22 07:11:49;;;;;;;16.90;15.30;;;;;;;4.43;61.59;101971.69;5101721;28;20269;-71
2022/03/22 07:14:16;;;;;;;16.23;14.63;;;;;;;4.48;60.96;101997.66;5101887;28;20209;-71
2022/03/22 07:16:42;;;;;;;16.60;15.00;;;;;;;4.51;60.71;102014.16;5102735;27;20221;-71
2022/03/22 07:19:09;;;;;;;17.87;14.97;;;;;;;4.61;60.71;102032.56;5103669;28;20223;-71
2022/03/22 07:21:35;;;;;;;18.43;14.93;;;;;;;4.72;61.55;102013.97;5101907;28;20712;-71
2022/03/22 07:24:01;;;;;;;16.40;14.90;;;;;;;4.85;61.99;101991.03;5102127;28;20195;-71
2022/03/22 07:26:29;;;;;;;15.77;14.37;;;;;;;5.01;60.21;102021.69;5100904;28;20201;-72
2022/03/22 07:28:56;;;;;;;16.03;14.43;;;;;;;5.15;58.09;102079.06;5101736;28;20600;-72
2022/03/22 07:31:22;;;;;;;17.17;13.50;;;;;;;5.30;55.93;102133.88;5102448;28;20215;-71
2022/03/22 07:33:48;;;;;;;18.65;16.85;;;;;;;5.48;55.09;102181.88;5101651;28;20433;-73
2022/03/22 07:36:15;;;;;;;18.38;16.77;;;;;;;5.72;57.73;102161.00;5099466;28;20990;-72
2022/03/22 07:38:42;;;;;;;17.03;15.40;;;;;;;5.81;57.88;102129.28;5100062;28;20256;-72
2022/03/22 07:41:10;;;;;;;16.90;15.30;;;;;;;5.95;57.05;102144.41;5100866;28;20699;-72
2022/03/22 07:43:40;;;;;;;16.47;15.07;;;;;;;6.13;57.85;102133.66;5098565;28;20209;-72
2022/03/22 07:46:06;;;;;;;17.33;15.73;;;;;;;6.28;58.07;102125.44;5101303;28;20683;-72
2022/03/22 07:48:33;;;;;;;16.70;15.07;;;;;;;6.41;59.54;102099.81;5099961;28;20715;-72
2022/03/22 07:53:44;;;;;;;17.87;16.43;;;;;;;6.69;59.79;102065.88;5101425;28;20199;-72
2022/03/22 07:56:11;;;;;;;19.37;16.67;;;;;;;6.82;59.51;102061.88;5100815;28;20202;-72
2022/03/22 07:58:39;;;;;;;17.90;16.30;;;;;;;6.97;59.54;102069.97;5102646;28;20213;-73
2022/03/22 08:01:05;;;;;;;16.93;15.43;;;;;;;7.13;58.91;102078.13;5101610;28;20192;-73
2022/03/22 08:03:32;;;;;;;22.03;17.97;;;;;;;7.19;59.07;102080.84;5100296;28;20263;-73
2022/03/22 08:06:00;;;;;;;19.23;17.53;;;;;;;7.16;58.39;102094.66;5101880;28;20256;-73
2022/03/22 08:08:26;;;;;;;20.00;18.17;;;;;;;7.30;58.35;102114.84;5099374;28;20202;-72
2022/03/22 08:10:53;;;;;;;20.67;18.40;;;;;;;7.36;57.80;102127.97;5100713;28;20287;-72
2022/03/22 08:13:19;;;;;;;20.23;18.23;;;;;;;7.41;58.03;102130.66;5100633;28;20214;-72
2022/03/22 08:15:47;;;;;;;20.70;17.77;;;;;;;7.47;57.76;102136.88;5101200;28;20199;-72
2022/03/22 08:18:15;;;;;;;23.50;19.10;;;;;;;7.59;58.26;102133.66;5102085;28;20896;-73
2022/03/22 08:20:42;;;;;;;21.20;19.30;;;;;;;7.65;58.38;102140.69;5100868;28;20203;-73
2022/03/22 08:23:09;;;;;;;20.10;18.20;;;;;;;7.74;57.86;102141.75;5100614;28;20713;-73
2022/03/22 08:25:38;;;;;;;20.47;18.40;;;;;;;7.85;58.06;102144.59;5102659;28;20232;-73
2022/03/22 08:28:07;;;;;;;20.00;18.10;;;;;;;7.94;57.47;102156.88;5100988;28;20199;-73
2022/03/22 08:30:34;;;;;;;18.57;16.57;;;;;;;8.00;57.87;102154.38;5100466;28;20236;-73
2022/03/22 08:33:06;;;;;;;18.47;16.97;;;;;;;8.06;58.14;102140.63;5100869;28;20199;-71
2022/03/22 08:35:32;;;;;;;18.23;16.63;;;;;;;8.10;58.46;102138.09;5103295;28;20206;-72
2022/03/22 08:37:59;;;;;;;19.80;17.83;;;;;;;8.17;58.57;102120.91;5099929;28;20244;-72
2022/03/22 08:40:25;;;;;;;19.37;17.13;;;;;;;8.28;58.70;102119.34;5099904;28;20684;-72
2022/03/22 08:42:53;;;;;;;18.93;17.23;;;;;;;8.38;57.84;102111.72;5100854;28;20196;-72
2022/03/22 08:45:23;;;;;;;19.70;17.83;;;;;;;8.54;58.21;102132.88;5100302;28;20690;-72
2022/03/22 08:47:51;;;;;;;18.80;17.20;;;;;;;8.65;56.80;102160.81;5101000;28;20203;-72
2022/03/22 08:50:21;;;;;;;23.23;16.30;;;;;;;8.80;56.97;102165.38;5103034;28;20229;-72
2022/03/22 08:52:49;;;;;;;18.40;16.70;;;;;;;8.96;55.75;102203.84;5105966;28;20230;-72
2022/03/22 08:55:17;;;;;;;18.67;17.07;;;;;;;9.09;54.26;102242.25;5104261;28;20245;-72
2022/03/22 08:57:46;;;;;;;18.60;16.90;;;;;;;9.24;53.12;102267.69;5105997;28;20194;-72
2022/03/22 09:00:15;;;;;;;17.57;15.53;;;;;;;9.40;53.04;102288.78;5106175;28;20227;-73
2022/03/22 09:02:44;;;;;;;18.13;16.57;;;;;;;9.51;54.15;102266.34;5104807;28;20236;-72
2022/03/22 09:08:06;;;;;;;17.57;16.10;;;;;;;9.99;52.41;102316.56;5082349;28;20199;-72
2022/03/22 09:10:33;;;;;;;17.60;15.93;;;;;;;10.03;51.10;102345.34;5107015;28;20200;-72
2022/03/22 09:13:00;;;;;;;17.80;16.17;;;;;;;10.08;50.29;102368.91;5106943;28;20220;-71
2022/03/22 09:15:28;;;;;;;17.97;15.93;;;;;;;10.09;50.41;102391.53;5105334;28;20207;-72
2022/03/22 09:17:56;;;;;;;18.87;17.07;;;;;;;10.14;50.71;102387.25;5106135;28;20307;-72
2022/03/22 09:20:23;;;;;;;17.60;15.87;;;;;;;10.28;49.89;102384.81;5104366;28;20223;-72
2022/03/22 09:22:51;;;;;;;17.10;15.37;;;;;;;10.41;48.91;102432.91;5104607;28;20195;-72
2022/03/22 09:25:21;;;;;;;17.33;15.93;;;;;;;10.40;47.89;102450.28;5105996;28;20203;-72
2022/03/22 09:27:48;;;;;;;20.43;16.23;;;;;;;10.58;48.43;102444.44;5105023;28;20254;-73
2022/03/22 09:30:15;;;;;;;17.43;15.90;;;;;;;10.71;48.28;102445.50;5104151;28;20755;-73
2022/03/22 09:32:42;;;;;;;17.93;16.00;;;;;;;10.80;46.15;102483.91;5105000;27;20219;-73
2022/03/22 09:35:11;;;;;;;17.13;15.73;;;;;;;10.87;45.20;102535.41;5105221;28;20224;-72
2022/03/22 09:37:38;;;;;;;17.23;15.83;;;;;;;10.95;45.74;102559.88;5104412;28;20846;-73
2022/03/22 09:40:06;;;;;;;17.40;15.70;;;;;;;11.04;45.68;102551.28;5104726;28;20257;-73
2022/03/22 09:42:34;;;;;;;16.67;15.13;;;;;;;11.08;44.89;102582.72;5105908;28;20195;-73
2022/03/22 09:45:01;;;;;;;16.73;15.27;;;;;;;11.22;44.33;102606.44;5104047;28;20249;-72
2022/03/22 09:47:27;;;;;;;17.57;15.80;;;;;;;11.38;44.99;102589.22;5104166;28;20199;-73
2022/03/22 09:49:54;;;;;;;17.30;15.70;;;;;;;11.49;44.29;102607.63;5102884;28;20322;-72
2022/03/22 09:52:22;;;;;;;18.13;16.37;;;;;;;11.55;43.89;102618.16;5105012;28;20336;-73
2022/03/22 09:54:49;;;;;;;18.20;16.43;;;;;;;11.64;43.52;102617.41;5105085;28;20196;-73
2022/03/22 09:57:16;;;;;;;16.60;15.10;;;;;;;11.79;42.08;102654.19;5103505;28;20241;-73
2022/03/22 09:59:44;;;;;;;17.20;15.80;;;;;;;11.94;42.64;102678.84;5104400;28;20242;-73
2022/03/22 10:02:12;;;;;;;17.57;16.00;;;;;;;12.00;42.74;102669.31;5104840;28;20199;-72
2022/03/22 10:04:40;;;;;;;18.40;16.67;;;;;;;12.02;41.77;102698.13;5103221;28;20204;-73
2022/03/22 10:07:08;;;;;;;16.87;15.47;;;;;;;12.05;42.40;102683.34;5104191;28;20206;-73
2022/03/22 10:09:37;;;;;;;18.73;16.83;;;;;;;12.18;42.95;102679.09;5103544;28;20272;-73
2022/03/22 10:12:05;;;;;;;17.23;15.80;;;;;;;12.32;41.49;102667.03;5104198;28;20695;-73
2022/03/22 10:14:36;;;;;;;18.20;16.63;;;;;;;12.46;40.77;102697.72;5105173;28;20207;-73
2022/03/22 10:17:12;;;;;;;17.50;15.83;;;;;;;12.62;41.45;102738.03;5103835;28;20250;-73
2022/03/22 10:19:44;;;;;;;17.87;16.47;;;;;;;12.68;40.05;102736.34;5103547;28;20235;-72
2022/03/22 10:22:11;;;;;;;18.70;17.13;;;;;;;12.74;40.07;102766.97;5102893;28;20659;-73
2022/03/22 10:24:45;;;;;;;17.87;16.10;;;;;;;12.78;39.82;102776.63;5102953;28;20276;-73
2022/03/22 10:27:23;;;;;;;16.87;15.00;;;;;;;12.78;40.07;102783.59;5102666;28;20199;-73
2022/03/22 10:29:49;;;;;;;17.33;15.73;;;;;;;12.86;40.37;102777.59;5104506;28;20277;-73
2022/03/22 10:32:19;;;;;;;18.63;16.53;;;;;;;12.94;38.85;102779.38;5102704;28;20227;-73
2022/03/22 10:34:46;;;;;;;18.37;16.60;;;;;;;13.08;38.03;102811.84;5103418;28;20200;-73
2022/03/22 10:37:13;;;;;;;17.83;16.33;;;;;;;13.15;37.86;102860.00;5103114;28;20284;-73
2022/03/22 10:39:42;;;;;;;18.07;16.47;;;;;;;13.22;39.50;102864.41;5103102;28;20641;-73
2022/03/22 10:42:10;;;;;;;17.87;16.00;;;;;;;13.41;37.10;102841.91;5119369;28;20196;-83
2022/03/22 10:44:37;;;;;;;17.70;16.23;;;;;;;13.43;37.26;102877.75;5111652;28;20193;-82
2022/03/22 10:47:05;;;;;;;17.87;16.30;;;;;;;13.50;37.57;102895.31;5113735;28;20200;-83
2022/03/22 10:49:32;;;;;;;17.17;15.73;;;;;;;13.46;37.03;102890.91;5121233;28;20220;-85
2022/03/22 10:51:59;;;;;;;17.40;16.00;;;;;;;13.48;37.67;102899.69;5109595;28;20652;-82
2022/03/22 10:54:26;;;;;;;18.17;16.33;;;;;;;13.64;39.26;102848.19;5118896;28;20201;-83
2022/03/22 10:56:54;;;;;;;15.80;14.20;;;;;;;13.73;36.78;102826.38;5104968;28;20204;-82
2022/03/22 10:59:24;;;;;;;16.20;14.53;;;;;;;13.96;36.82;102872.91;5107886;28;20220;-82
2022/03/22 11:01:52;;;;;;;16.03;13.53;;;;;;;14.09;35.58;102903.59;5114304;28;20244;-82
2022/03/22 11:04:20;;;;;;;15.20;13.90;;;;;;;14.22;35.51;102947.47;5115125;28;20263;-82
2022/03/22 11:06:48;;;;;;;15.10;13.70;;;;;;;14.26;34.33;102978.16;5110009;28;20267;-82
2022/03/22 11:09:15;;;;;;;14.90;13.47;;;;;;;14.23;33.99;103011.41;5118690;28;20213;-82
2022/03/22 11:11:43;;;;;;;15.30;13.87;;;;;;;14.35;34.00;103010.59;5112203;28;20222;-80
2022/03/22 11:14:12;;;;;;;14.57;12.77;;;;;;;14.52;33.99;103056.28;5109591;28;20192;-78
2022/03/22 11:16:40;;;;;;;12.63;11.50;;;;;;;14.74;31.92;103041.53;5100626;22;20289;-78
2022/03/22 11:19:07;;;;;;;16.70;12.17;;;;;;;14.94;32.39;103106.53;5045671;28;20226;-78
2022/03/22 11:21:34;;;;;;;14.20;12.80;;;;;;;15.16;33.03;103091.72;5037502;28;20211;-78
2022/03/22 11:24:07;;;;;;;15.27;13.90;;;;;;;15.35;31.11;103103.22;5034024;28;20684;-78
2022/03/22 11:26:40;;;;;;;15.50;13.93;;;;;;;15.59;34.10;103066.44;5040036;28;20268;-78
2022/03/22 11:29:07;;;;;;;14.20;13.00;;;;;;;15.77;31.69;103094.59;5046502;28;20215;-78
2022/03/22 11:31:35;;;;;;;14.70;13.40;;;;;;;15.98;30.35;103127.16;5054173;28;20270;-78
2022/03/22 11:34:11;;;;;;;16.63;14.57;;;;;;;16.18;30.88;103145.63;5054311;28;20203;-78
2022/03/22 11:36:44;;;;;;;14.73;13.43;;;;;;;16.43;30.55;103165.84;5053750;28;20211;-78
2022/03/22 11:39:17;;;;;;;14.10;13.00;;;;;;;17.06;28.08;103191.31;5054574;28;20231;-78
2022/03/22 11:44:37;;;;;;;13.20;11.87;;;;;;;19.95;26.66;103283.69;5055442;28;20208;-79
2022/03/22 11:47:07;;;;;;;12.67;11.63;;;;;;;21.40;23.75;103391.25;5055133;28;20213;-77
2022/03/22 11:49:49;;;;;;;13.13;12.13;;;;;;;22.91;23.12;103438.84;5052602;28;20247;-76
2022/03/22 11:52:17;;;;;;;15.33;13.77;;;;;;;24.23;20.87;103522.75;5052190;28;20225;-77